Time;durP1;ratioP1;P1;durP2;ratioP2;P2;SDS_P1;SDS_P2;PMS_P1;PMS_P2;Temp;Humidity;BMP_temperature;BMP_pressure;BME280_temperature;BME280_humidity;BME280_pressure;Samples;Min_cycle;Max_cycle;Signal;HPM_P1;HPM_P2
2021/09/06 00:00:32;;;;;;;6.75;5.07;;;;;;;17.51;68.53;100343.09;811743;47;20043;-76
2021/09/06 00:01:18;;;;;;;7.93;5.70;;;;;;;17.45;68.79;100343.84;811846;47;20046;-75
2021/09/06 00:02:07;;;;;;;9.45;6.10;;;;;;;17.42;68.57;100342.34;811460;54;20035;-76
2021/09/06 00:02:53;;;;;;;7.72;4.80;;;;;;;17.44;68.59;100336.75;812275;39;20493;-76
2021/09/06 00:03:42;;;;;;;7.30;5.50;;;;;;;17.50;68.57;100340.59;812299;47;20055;-75
2021/09/06 00:04:28;;;;;;;8.52;5.05;;;;;;;17.52;68.41;100339.38;811955;47;20151;-75
2021/09/06 00:05:16;;;;;;;7.15;5.32;;;;;;;17.44;68.60;100342.97;811596;54;20067;-74
2021/09/06 00:06:02;;;;;;;8.77;5.15;;;;;;;17.44;68.54;100340.28;811926;54;20046;-75
2021/09/06 00:06:51;;;;;;;7.00;5.03;;;;;;;17.44;68.47;100336.75;811808;47;20569;-75
2021/09/06 00:07:37;;;;;;;7.10;4.85;;;;;;;17.53;68.51;100341.06;811951;54;20046;-75
2021/09/06 00:08:25;;;;;;;6.82;5.32;;;;;;;17.55;68.38;100339.00;811537;47;20038;-74
2021/09/06 00:09:11;;;;;;;6.80;4.93;;;;;;;17.57;68.38;100336.13;811698;47;20071;-75
2021/09/06 00:10:03;;;;;;;6.80;4.88;;;;;;;17.54;68.22;100342.72;811475;47;20035;-74
2021/09/06 00:11:04;;;;;;;7.60;5.32;;;;;;;17.45;68.88;100344.66;811704;47;20162;-75
2021/09/06 00:11:50;;;;;;;6.72;4.63;;;;;;;17.43;68.37;100345.88;811948;54;20039;-75
2021/09/06 00:12:38;;;;;;;7.20;4.97;;;;;;;17.40;68.82;100328.16;811543;47;20058;-75
2021/09/06 00:13:24;;;;;;;7.18;5.40;;;;;;;17.42;68.79;100331.53;811835;54;20035;-75
2021/09/06 00:14:13;;;;;;;8.52;5.00;;;;;;;17.40;68.63;100343.53;812268;47;20058;-75
2021/09/06 00:14:59;;;;;;;6.80;5.22;;;;;;;17.36;68.68;100334.13;912354;36;20046;-76
2021/09/06 00:15:50;;;;;;;6.97;5.13;;;;;;;17.41;68.68;100337.97;811811;47;20420;-75
2021/09/06 00:16:36;;;;;;;8.13;5.05;;;;;;;17.44;68.51;100326.75;811685;47;20063;-76
2021/09/06 00:17:24;;;;;;;7.57;4.57;;;;;;;17.47;68.55;100330.97;811590;54;20088;-75
2021/09/06 00:18:11;;;;;;;6.55;4.65;;;;;;;17.42;68.55;100334.22;811916;39;20427;-75
2021/09/06 00:18:59;;;;;;;8.65;4.95;;;;;;;17.39;68.88;100337.28;811519;54;20632;-74
2021/09/06 00:19:45;;;;;;;8.05;5.78;;;;;;;17.30;69.04;100331.09;811762;47;20046;-75
2021/09/06 00:20:36;;;;;;;8.90;4.72;;;;;;;17.29;69.34;100334.81;811923;39;20837;-75
2021/09/06 00:21:21;;;;;;;;;;;;;;;17.12;70.07;100338.69;811931;47;20042;-76
2021/09/06 00:22:10;;;;;;;8.52;5.55;;;;;;;17.08;70.06;100335.50;811762;47;19946;-75
2021/09/06 00:22:56;;;;;;;7.30;5.20;;;;;;;17.15;69.90;100339.16;811558;47;20046;-75
2021/09/06 00:23:44;;;;;;;10.07;6.07;;;;;;;17.17;69.82;100344.41;812482;31;20614;-75
2021/09/06 00:24:30;;;;;;;7.53;5.50;;;;;;;17.23;69.68;100330.16;812437;47;20134;-76
2021/09/06 00:25:20;;;;;;;7.03;5.40;;;;;;;17.26;69.37;100339.75;811917;47;20542;-75
2021/09/06 00:26:06;;;;;;;7.85;5.30;;;;;;;17.15;69.91;100339.16;811688;47;20046;-75
2021/09/06 00:26:55;;;;;;;8.23;5.63;;;;;;;17.10;70.23;100338.88;811845;54;20094;-76
2021/09/06 00:27:41;;;;;;;9.73;6.40;;;;;;;17.05;70.59;100337.72;811897;47;20071;-75
2021/09/06 00:28:29;;;;;;;9.50;5.72;;;;;;;17.04;70.23;100330.66;811760;54;20027;-75
2021/09/06 00:29:15;;;;;;;8.43;6.53;;;;;;;17.04;70.65;100336.06;812277;54;20047;-75
2021/09/06 00:30:04;;;;;;;8.27;6.13;;;;;;;17.03;70.41;100339.78;811695;54;20034;-80
2021/09/06 00:30:53;;;;;;;8.38;5.72;;;;;;;17.03;70.57;100337.06;811831;47;20632;-76
2021/09/06 00:31:41;;;;;;;8.95;5.85;;;;;;;17.00;70.65;100336.41;811934;54;20042;-75
2021/09/06 00:32:27;;;;;;;8.05;5.40;;;;;;;16.96;70.81;100332.41;811872;47;20070;-75
2021/09/06 00:33:18;;;;;;;8.48;5.47;;;;;;;17.01;70.81;100342.66;811615;54;20042;-75
2021/09/06 00:34:04;;;;;;;7.78;5.28;;;;;;;17.12;70.12;100342.25;812069;47;20047;-76
2021/09/06 00:34:53;;;;;;;6.57;5.30;;;;;;;17.07;70.00;100330.31;811942;54;20042;-76
2021/09/06 00:35:39;;;;;;;7.03;5.35;;;;;;;16.99;70.36;100332.06;812998;39;20524;-75
2021/09/06 00:36:28;;;;;;;7.88;5.60;;;;;;;16.89;70.50;100338.66;812718;39;20362;-75
2021/09/06 00:37:14;;;;;;;6.35;4.82;;;;;;;16.89;70.74;100336.81;812143;54;20062;-76
2021/09/06 00:38:02;;;;;;;7.78;5.43;;;;;;;16.88;70.44;100337.81;811772;47;20046;-75
2021/09/06 00:38:48;;;;;;;7.07;5.00;;;;;;;16.93;70.51;100337.28;812319;54;20038;-75
2021/09/06 00:39:37;;;;;;;8.73;5.18;;;;;;;17.07;69.78;100338.41;876673;36;20031;-75
2021/09/06 00:40:23;;;;;;;7.43;5.22;;;;;;;17.14;69.50;100344.75;811507;54;20038;-76
2021/09/06 00:41:11;;;;;;;6.80;4.50;;;;;;;17.23;69.21;100340.13;811642;54;20042;-75
2021/09/06 00:41:57;;;;;;;6.60;4.32;;;;;;;17.35;68.93;100343.25;811856;47;20038;-75
2021/09/06 00:42:46;;;;;;;6.25;4.65;;;;;;;17.41;68.63;100337.09;811884;54;20035;-75
2021/09/06 00:43:32;;;;;;;7.13;5.07;;;;;;;17.33;68.60;100335.34;811545;47;20038;-75
2021/09/06 00:44:20;;;;;;;8.95;4.57;;;;;;;17.23;68.66;100338.25;811757;54;20580;-76
2021/09/06 00:45:07;;;;;;;7.68;4.53;;;;;;;17.15;68.87;100338.34;812344;39;20573;-76
2021/09/06 00:45:58;;;;;;;7.97;5.22;;;;;;;16.94;69.34;100342.53;811238;54;20035;-75
2021/09/06 00:46:46;;;;;;;8.43;4.80;;;;;;;16.91;69.56;100340.16;811573;47;20063;-75
2021/09/06 00:47:34;;;;;;;7.55;5.07;;;;;;;16.96;69.29;100335.09;812299;54;20742;-75
2021/09/06 00:48:25;;;;;;;7.70;4.53;;;;;;;17.02;68.89;100338.09;812433;54;20406;-76
2021/09/06 00:49:11;;;;;;;6.63;4.43;;;;;;;17.05;68.78;100337.72;812226;54;20038;-75
2021/09/06 00:49:59;;;;;;;6.28;4.40;;;;;;;17.11;68.58;100345.97;811635;54;20059;-76
2021/09/06 00:50:46;;;;;;;6.75;4.68;;;;;;;17.10;68.85;100343.41;811474;47;20038;-78
2021/09/06 00:51:35;;;;;;;7.50;4.35;;;;;;;17.09;68.68;100344.47;812007;54;20037;-75
2021/09/06 00:52:21;;;;;;;6.63;5.13;;;;;;;16.89;69.27;100339.50;811983;47;20039;-75
2021/09/06 00:53:09;;;;;;;7.03;4.93;;;;;;;16.79;69.83;100349.69;811716;54;20034;-76
2021/09/06 00:53:55;;;;;;;7.93;5.35;;;;;;;16.83;69.77;100342.91;812046;54;20034;-75
2021/09/06 00:54:44;;;;;;;9.40;5.32;;;;;;;16.82;69.41;100354.72;812327;39;20425;-75
2021/09/06 00:55:30;;;;;;;8.20;5.22;;;;;;;16.76;69.90;100352.75;812137;47;20157;-75
2021/09/06 00:56:19;;;;;;;7.35;5.07;;;;;;;16.81;69.62;100347.66;812941;46;20074;-75
2021/09/06 00:57:05;;;;;;;8.68;5.25;;;;;;;16.90;69.51;100345.75;813658;47;20303;-76
2021/09/06 00:57:55;;;;;;;6.85;5.00;;;;;;;16.93;69.30;100343.53;815350;39;20531;-75
2021/09/06 00:58:41;;;;;;;6.75;4.95;;;;;;;16.91;69.18;100348.25;812604;47;20611;-75
2021/09/06 00:59:26;;;;;;;7.13;4.82;;;;;;;17.00;69.22;100351.78;812192;47;20034;-75
2021/09/06 01:00:17;;;;;;;7.32;5.00;;;;;;;17.02;68.98;100348.88;812119;54;20043;-76
2021/09/06 01:01:06;;;;;;;6.90;4.95;;;;;;;17.00;68.99;100349.91;811744;54;20083;-75
2021/09/06 01:01:54;;;;;;;7.53;4.75;;;;;;;16.96;69.12;100345.91;811767;47;20034;-77
2021/09/06 01:02:41;;;;;;;7.53;5.07;;;;;;;16.89;69.66;100344.91;812746;39;20466;-75
2021/09/06 01:03:29;;;;;;;7.72;5.68;;;;;;;16.86;69.88;100345.25;812420;39;20492;-75
2021/09/06 01:04:15;;;;;;;6.70;5.07;;;;;;;16.82;69.93;100349.31;811710;47;20075;-76
2021/09/06 01:05:04;;;;;;;7.13;5.25;;;;;;;16.89;69.86;100344.91;812203;54;20068;-75
2021/09/06 01:05:50;;;;;;;6.60;4.85;;;;;;;16.84;70.24;100341.88;811863;47;20063;-76
2021/09/06 01:06:39;;;;;;;7.97;5.20;;;;;;;16.85;69.84;100351.69;811953;47;20038;-76
2021/09/06 01:07:25;;;;;;;6.97;4.90;;;;;;;16.86;70.13;100345.25;812110;54;20086;-75
2021/09/06 01:08:13;;;;;;;7.80;5.18;;;;;;;16.88;70.05;100342.38;811828;47;20066;-75
2021/09/06 01:08:59;;;;;;;7.53;5.22;;;;;;;16.94;69.96;100341.72;811732;47;20047;-75
2021/09/06 01:09:48;;;;;;;6.32;4.75;;;;;;;16.98;69.59;100343.88;813575;39;20579;-75
2021/09/06 01:10:34;;;;;;;6.30;4.78;;;;;;;17.07;69.22;100347.31;811908;54;20169;-75
2021/09/06 01:11:23;;;;;;;7.63;4.65;;;;;;;17.06;69.29;100342.13;812407;54;20042;-75
2021/09/06 01:12:09;;;;;;;7.20;4.68;;;;;;;17.08;69.34;100346.31;811973;54;20038;-75
2021/09/06 01:12:58;;;;;;;6.32;4.63;;;;;;;17.17;68.75;100352.50;812310;54;20042;-76
2021/09/06 01:13:44;;;;;;;5.68;4.25;;;;;;;17.23;68.93;100350.94;812056;47;20071;-75
2021/09/06 01:14:32;;;;;;;6.25;3.97;;;;;;;17.26;68.65;100351.41;812067;39;20607;-75
2021/09/06 01:15:18;;;;;;;6.47;4.80;;;;;;;17.28;68.64;100359.34;811515;54;20046;-74
2021/09/06 01:16:10;;;;;;;6.95;4.35;;;;;;;17.33;68.56;100348.84;811927;54;20034;-75
2021/09/06 01:16:56;;;;;;;6.45;4.20;;;;;;;17.38;68.28;100348.28;812087;47;20038;-75
2021/09/06 01:17:45;;;;;;;5.90;4.18;;;;;;;17.38;68.15;100353.69;812110;54;20034;-75
2021/09/06 01:18:31;;;;;;;5.95;3.85;;;;;;;17.42;68.15;100357.69;811765;47;20076;-75
2021/09/06 01:19:19;;;;;;;6.68;4.55;;;;;;;17.45;68.29;100360.03;812007;54;20060;-76
2021/09/06 01:20:07;;;;;;;5.57;3.63;;;;;;;17.46;68.30;100357.16;812147;54;20078;-75
2021/09/06 01:20:56;;;;;;;5.78;4.10;;;;;;;17.45;68.45;100350.06;811796;47;20049;-75
2021/09/06 01:21:42;;;;;;;7.47;4.68;;;;;;;17.41;68.37;100358.72;812069;47;20039;-75
2021/09/06 01:22:30;;;;;;;7.65;4.38;;;;;;;17.37;68.52;100360.13;812744;39;20475;-75
2021/09/06 01:23:16;;;;;;;6.20;4.38;;;;;;;17.42;68.41;100358.56;811925;54;20038;-75
2021/09/06 01:24:05;;;;;;;5.75;4.20;;;;;;;17.43;68.36;100357.50;812233;54;20042;-75
2021/09/06 01:24:51;;;;;;;7.38;4.22;;;;;;;17.46;68.32;100362.56;812059;47;20046;-74
2021/09/06 01:25:40;;;;;;;7.00;4.20;;;;;;;17.46;68.27;100362.56;811880;54;20041;-75
2021/09/06 01:26:28;;;;;;;6.65;4.07;;;;;;;17.48;68.29;100365.06;811936;46;20030;-75
2021/09/06 01:27:18;;;;;;;7.63;4.22;;;;;;;17.48;68.63;100365.06;811988;54;20034;-75
2021/09/06 01:28:04;;;;;;;5.93;4.15;;;;;;;17.48;68.47;100365.06;811868;47;20075;-76
2021/09/06 01:28:53;;;;;;;5.65;4.15;;;;;;;17.47;68.46;100368.81;811989;47;20046;-76
2021/09/06 01:29:39;;;;;;;5.85;3.60;;;;;;;17.50;68.66;100362.19;812007;54;20062;-76
2021/09/06 01:30:27;;;;;;;8.60;4.32;;;;;;;17.50;68.51;100368.44;812003;39;20571;-76
2021/09/06 01:31:13;;;;;;;5.25;3.83;;;;;;;17.48;68.43;100365.06;811731;54;20046;-76
2021/09/06 01:32:02;;;;;;;5.32;3.63;;;;;;;17.46;68.82;100359.03;811916;47;20067;-75
2021/09/06 01:32:48;;;;;;;6.63;4.10;;;;;;;17.46;68.62;100369.84;811948;47;20090;-75
2021/09/06 01:33:36;;;;;;;6.78;4.30;;;;;;;17.46;68.75;100370.66;812171;39;20458;-74
2021/09/06 01:34:22;;;;;;;6.05;4.50;;;;;;;17.41;68.71;100372.22;811903;54;20627;-75
2021/09/06 01:35:12;;;;;;;6.60;4.43;;;;;;;17.46;68.82;100372.53;811945;47;20034;-75
2021/09/06 01:35:58;;;;;;;5.97;4.13;;;;;;;17.49;68.53;100372.16;813075;39;20517;-75
2021/09/06 01:36:46;;;;;;;6.38;4.00;;;;;;;17.49;68.44;100372.16;811840;54;20060;-75
2021/09/06 01:37:32;;;;;;;6.53;3.92;;;;;;;17.42;68.79;100371.22;811741;47;20063;-75
2021/09/06 01:38:21;;;;;;;5.53;3.90;;;;;;;17.45;68.40;100371.69;812117;47;20043;-75
2021/09/06 01:39:07;;;;;;;5.85;3.85;;;;;;;17.48;68.25;100370.47;811923;47;20198;-75
2021/09/06 01:39:55;;;;;;;7.03;4.10;;;;;;;17.50;68.53;100379.25;811844;54;20054;-75
2021/09/06 01:40:41;;;;;;;6.70;4.43;;;;;;;17.48;68.44;100375.88;811719;47;20527;-75
2021/09/06 01:41:33;;;;;;;6.20;4.05;;;;;;;17.50;68.06;100381.94;811831;54;20569;-75
2021/09/06 01:42:19;;;;;;;5.80;3.85;;;;;;;17.52;68.05;100379.91;812371;47;20635;-75
2021/09/06 01:43:08;;;;;;;6.18;3.92;;;;;;;17.52;68.34;100374.50;812141;47;20046;-74
2021/09/06 01:43:54;;;;;;;6.90;4.47;;;;;;;17.15;69.18;100376.16;812553;54;20069;-73
2021/09/06 01:44:43;;;;;;;7.18;5.20;;;;;;;16.99;70.05;100380.66;812858;54;20067;-75
2021/09/06 01:45:29;;;;;;;8.57;5.30;;;;;;;16.81;70.22;100375.50;812306;46;20038;-74
2021/09/06 01:46:17;;;;;;;8.43;5.53;;;;;;;16.71;70.52;100382.13;811703;47;20063;-74
2021/09/06 01:47:03;;;;;;;6.90;5.30;;;;;;;16.61;71.15;100380.50;812450;47;20039;-75
2021/09/06 01:47:52;;;;;;;8.68;5.53;;;;;;;16.45;71.75;100380.56;811359;54;20034;-76
2021/09/06 01:48:38;;;;;;;10.73;6.15;;;;;;;16.33;72.08;100366.63;811651;54;20070;-74
2021/09/06 01:49:26;;;;;;;7.38;5.35;;;;;;;16.31;71.91;100380.28;812302;39;20583;-76
2021/09/06 01:50:13;;;;;;;7.75;5.57;;;;;;;16.20;72.26;100383.34;812101;47;20038;-75
2021/09/06 01:51:02;;;;;;;8.48;5.70;;;;;;;16.30;72.21;100378.59;812117;39;20605;-75
2021/09/06 01:51:48;;;;;;;11.48;5.72;;;;;;;16.18;72.17;100378.16;811722;54;20094;-75
2021/09/06 01:52:37;;;;;;;9.35;5.53;;;;;;;16.22;72.29;100384.84;812258;54;20038;-75
2021/09/06 01:53:22;;;;;;;7.65;5.20;;;;;;;16.25;72.07;100383.66;811869;47;20046;-75
2021/09/06 01:54:09;;;;;;;7.38;5.30;;;;;;;16.26;72.03;100385.34;812131;46;20100;-75
2021/09/06 01:54:57;;;;;;;7.30;5.57;;;;;;;16.15;72.11;100383.06;812036;47;20049;-75
2021/09/06 01:55:43;;;;;;;9.02;4.75;;;;;;;16.05;72.86;100380.53;813160;39;20581;-75
2021/09/06 01:56:34;;;;;;;7.40;5.18;;;;;;;16.01;72.84;100382.72;811954;54;20059;-75
2021/09/06 01:57:20;;;;;;;7.47;5.43;;;;;;;15.97;72.81;100372.47;811653;47;20059;-75
2021/09/06 01:58:09;;;;;;;10.02;5.30;;;;;;;16.05;72.51;100376.00;811652;46;20060;-75
2021/09/06 01:58:56;;;;;;;8.05;5.43;;;;;;;16.00;72.65;100377.53;812201;54;20070;-74
2021/09/06 01:59:44;;;;;;;9.10;5.65;;;;;;;16.01;72.71;100377.34;812134;54;20042;-75
2021/09/06 02:00:30;;;;;;;7.68;5.82;;;;;;;16.02;72.62;100375.47;812096;47;20063;-75
2021/09/06 02:01:16;;;;;;;8.05;5.40;;;;;;;15.98;72.85;100374.97;811844;47;20071;-74
2021/09/06 02:02:05;;;;;;;10.55;6.15;;;;;;;15.93;73.10;100379.19;812096;54;20042;-74
2021/09/06 02:02:51;;;;;;;9.05;5.38;;;;;;;15.87;73.29;100378.06;811929;39;20575;-75
2021/09/06 02:03:40;;;;;;;8.65;5.38;;;;;;;15.84;73.53;100383.78;811791;47;20034;-75
2021/09/06 02:04:26;;;;;;;8.52;5.90;;;;;;;15.82;73.49;100375.00;811799;54;20072;-75
2021/09/06 02:05:14;;;;;;;8.50;5.78;;;;;;;15.79;73.59;100380.72;811957;47;20089;-75
2021/09/06 02:06:00;;;;;;;8.15;6.13;;;;;;;15.77;73.87;100386.28;811792;54;20039;-76
2021/09/06 02:06:49;;;;;;;7.03;5.40;;;;;;;15.83;73.62;100382.06;811811;47;20068;-75
2021/09/06 02:07:35;;;;;;;7.65;5.70;;;;;;;15.90;73.44;100380.38;812775;39;20854;-75
2021/09/06 02:08:21;;;;;;;7.22;5.57;;;;;;;15.97;72.97;100380.56;811710;54;20061;-75
2021/09/06 02:09:10;;;;;;;9.80;5.38;;;;;;;16.01;72.70;100385.44;811833;47;20077;-76
2021/09/06 02:09:55;;;;;;;8.23;5.35;;;;;;;16.00;72.65;100383.75;811996;54;20064;-75
2021/09/06 02:10:44;;;;;;;7.97;5.32;;;;;;;15.99;72.64;100379.34;811713;54;20042;-75
2021/09/06 02:11:33;;;;;;;7.35;4.88;;;;;;;16.13;72.55;100376.97;812036;47;20034;-74
2021/09/06 02:12:21;;;;;;;10.07;5.55;;;;;;;16.13;72.34;100379.69;811959;47;20042;-76
2021/09/06 02:13:07;;;;;;;7.80;5.65;;;;;;;16.05;72.54;100376.00;811823;47;21008;-75
2021/09/06 02:13:56;;;;;;;7.15;5.40;;;;;;;16.01;72.91;100376.50;811791;54;20083;-75
2021/09/06 02:14:42;;;;;;;6.40;5.07;;;;;;;16.08;72.37;100377.50;812522;39;20528;-75
2021/09/06 02:15:30;;;;;;;6.85;4.88;;;;;;;16.21;72.17;100379.66;811975;47;20034;-74
2021/09/06 02:16:16;;;;;;;7.65;5.40;;;;;;;16.27;71.84;100378.13;811855;47;20120;-75
2021/09/06 02:17:06;;;;;;;7.43;5.05;;;;;;;16.30;71.68;100384.00;811967;46;20092;-76
2021/09/06 02:17:51;;;;;;;7.43;5.40;;;;;;;16.36;71.52;100382.47;812379;54;20046;-75
2021/09/06 02:18:40;;;;;;;7.50;5.70;;;;;;;16.43;71.05;100374.53;812144;54;20034;-75
2021/09/06 02:19:26;;;;;;;8.30;5.70;;;;;;;16.46;71.02;100387.63;811709;47;20038;-75
2021/09/06 02:20:15;;;;;;;7.88;5.13;;;;;;;16.46;70.94;100374.16;812131;54;20034;-75
2021/09/06 02:21:01;;;;;;;7.45;5.07;;;;;;;16.49;71.13;100376.50;812031;47;20703;-77
2021/09/06 02:21:50;;;;;;;6.78;4.90;;;;;;;16.48;71.10;100377.50;812502;54;20050;-75
2021/09/06 02:22:36;;;;;;;7.00;5.18;;;;;;;16.51;70.81;100375.31;813084;39;20902;-75
2021/09/06 02:23:25;;;;;;;9.23;5.07;;;;;;;16.53;71.01;100375.16;811955;46;20059;-75
2021/09/06 02:24:10;;;;;;;6.80;4.68;;;;;;;16.53;70.75;100375.16;812108;47;20157;-75
2021/09/06 02:24:59;;;;;;;6.65;4.63;;;;;;;16.56;70.98;100377.47;811763;47;20049;-75
2021/09/06 02:25:45;;;;;;;7.70;4.60;;;;;;;16.60;70.55;100376.13;811877;54;20071;-75
2021/09/06 02:26:36;;;;;;;7.13;4.32;;;;;;;16.61;70.83;100375.09;811874;54;20034;-75
2021/09/06 02:27:23;;;;;;;6.47;4.30;;;;;;;16.63;70.43;100375.75;812200;47;20038;-77
2021/09/06 02:28:12;;;;;;;6.90;4.90;;;;;;;16.67;70.74;100378.97;812743;54;20138;-77
2021/09/06 02:28:58;;;;;;;6.45;4.68;;;;;;;16.67;70.63;100374.38;812212;54;20046;-76
2021/09/06 02:29:46;;;;;;;6.38;4.72;;;;;;;16.68;70.61;100372.50;812382;54;20034;-76
2021/09/06 02:30:33;;;;;;;7.35;4.75;;;;;;;16.70;70.32;100378.59;812788;54;20038;-76
2021/09/06 02:31:21;;;;;;;6.07;4.53;;;;;;;16.73;70.23;100377.38;812933;39;20913;-77
2021/09/06 02:32:07;;;;;;;7.63;4.63;;;;;;;16.69;70.29;100376.91;812290;54;20637;-76
2021/09/06 02:32:56;;;;;;;6.15;4.60;;;;;;;16.74;70.40;100379.06;812197;47;20042;-75
2021/09/06 02:33:42;;;;;;;5.97;4.47;;;;;;;16.74;70.44;100382.63;812713;47;20913;-75
2021/09/06 02:34:30;;;;;;;5.88;4.15;;;;;;;16.78;70.23;100378.53;811998;47;20042;-75
2021/09/06 02:35:17;;;;;;;5.85;3.88;;;;;;;16.80;70.02;100381.91;811871;47;20046;-75
2021/09/06 02:36:06;;;;;;;6.20;4.22;;;;;;;16.81;69.67;100385.47;811966;54;20086;-75
2021/09/06 02:36:52;;;;;;;6.38;4.50;;;;;;;16.78;70.09;100391.22;812310;47;20063;-75
2021/09/06 02:37:41;;;;;;;6.60;4.93;;;;;;;16.67;70.23;100379.78;811640;54;20034;-74
2021/09/06 02:38:27;;;;;;;7.05;4.70;;;;;;;16.62;70.25;100382.19;812158;47;20070;-74
2021/09/06 02:39:14;;;;;;;7.88;5.30;;;;;;;16.57;70.42;100383.72;812151;47;20042;-75
2021/09/06 02:40:02;;;;;;;9.20;5.45;;;;;;;16.51;70.69;100390.66;811906;54;20049;-75
2021/09/06 02:40:48;;;;;;;7.05;5.05;;;;;;;16.46;70.79;100382.25;812481;46;20158;-74
2021/09/06 02:41:40;;;;;;;6.90;5.18;;;;;;;16.43;71.09;100388.00;812028;47;20587;-75
2021/09/06 02:42:26;;;;;;;7.70;5.43;;;;;;;16.47;70.72;100387.47;812362;54;20672;-75
2021/09/06 02:43:14;;;;;;;7.93;4.97;;;;;;;16.41;71.06;100387.34;812229;54;20068;-75
2021/09/06 02:44:00;;;;;;;8.45;5.30;;;;;;;16.37;71.21;100384.97;811969;54;20039;-75
2021/09/06 02:44:49;;;;;;;7.05;5.38;;;;;;;16.34;71.01;100389.88;812076;47;20034;-75
2021/09/06 02:45:35;;;;;;;6.63;5.30;;;;;;;16.29;71.12;100389.56;812610;54;20047;-75
2021/09/06 02:46:21;;;;;;;7.60;5.22;;;;;;;16.18;71.66;100388.06;812555;47;20045;-76
2021/09/06 02:47:10;;;;;;;7.75;5.45;;;;;;;16.11;71.89;100389.78;813734;54;20030;-74
2021/09/06 02:47:56;;;;;;;9.95;5.60;;;;;;;16.04;72.43;100392.31;813940;54;20038;-76
2021/09/06 02:48:44;;;;;;;7.78;5.25;;;;;;;16.03;72.15;100382.56;814057;54;20166;-76
2021/09/06 02:49:30;;;;;;;8.38;5.88;;;;;;;16.01;72.21;100384.59;813745;54;20094;-75
2021/09/06 02:50:19;;;;;;;8.77;5.90;;;;;;;16.02;72.25;100389.81;813230;46;20034;-75
2021/09/06 02:51:05;;;;;;;7.38;5.53;;;;;;;16.01;72.17;100385.44;813350;47;20047;-76
2021/09/06 02:51:54;;;;;;;8.77;5.18;;;;;;;16.03;72.41;100391.50;812640;54;20030;-76
2021/09/06 02:52:40;;;;;;;7.75;5.40;;;;;;;15.96;72.63;100385.13;813218;39;20541;-75
2021/09/06 02:53:28;;;;;;;8.20;5.53;;;;;;;15.87;72.58;100386.97;812341;47;20043;-75
2021/09/06 02:54:16;;;;;;;8.82;5.97;;;;;;;15.81;73.25;100394.88;812666;54;20059;-75
2021/09/06 02:55:04;;;;;;;8.82;5.80;;;;;;;15.79;73.26;100392.34;812918;54;20058;-75
2021/09/06 02:55:50;;;;;;;10.43;5.68;;;;;;;15.83;72.99;100390.16;812548;54;20062;-75
2021/09/06 02:56:41;;;;;;;8.95;6.07;;;;;;;15.82;73.23;100392.00;812430;54;20594;-75
2021/09/06 02:57:27;;;;;;;7.72;5.22;;;;;;;15.78;73.42;100395.19;813078;54;21066;-76
2021/09/06 03:31:10;;;;;;;7.30;5.75;;;;;;;15.42;72.85;100386.47;1088526;54;20463;-79
2021/09/06 03:32:12;;;;;;;8.30;6.32;;;;;;;15.23;73.85;100382.25;1088226;54;20062;-79
2021/09/06 03:33:17;;;;;;;7.97;5.82;;;;;;;15.17;73.88;100384.78;1088740;54;20046;-80
2021/09/06 03:34:18;;;;;;;7.50;5.50;;;;;;;15.09;74.16;100378.38;1088487;54;20038;-81
2021/09/06 03:35:23;;;;;;;7.80;5.13;;;;;;;15.05;74.21;100379.72;1088723;54;20598;-80
2021/09/06 03:36:28;;;;;;;10.68;5.88;;;;;;;14.99;74.44;100377.69;1088525;54;20034;-78
2021/09/06 03:37:29;;;;;;;8.07;6.00;;;;;;;14.97;74.23;100377.00;1088643;54;20089;-77
2021/09/06 03:38:34;;;;;;;8.60;5.47;;;;;;;14.89;74.48;100388.59;1088798;54;20061;-79
2021/09/06 03:39:36;;;;;;;17.30;6.35;;;;;;;14.92;74.52;100382.88;1088638;54;20049;-79
2021/09/06 03:40:40;;;;;;;7.65;5.43;;;;;;;14.91;74.08;100389.28;1089072;54;20115;-78
2021/09/06 03:41:42;;;;;;;9.35;5.53;;;;;;;14.97;74.00;100385.91;1088786;54;20422;-78
2021/09/06 03:42:46;;;;;;;9.18;5.65;;;;;;;14.98;74.16;100378.69;1088683;54;20038;-78
2021/09/06 03:43:48;;;;;;;8.63;5.50;;;;;;;14.95;73.96;100381.72;1090136;38;20771;-79
2021/09/06 03:44:52;;;;;;;9.25;5.93;;;;;;;14.96;74.12;100380.69;1088449;54;20061;-81
2021/09/06 03:45:53;;;;;;;7.35;4.95;;;;;;;14.92;73.92;100385.59;1088449;54;21027;-78
2021/09/06 03:47:00;;;;;;;8.73;5.32;;;;;;;14.97;73.97;100379.69;1088600;54;20042;-79
2021/09/06 03:48:02;;;;;;;9.85;5.43;;;;;;;14.90;74.02;100386.75;1088738;54;20118;-79
2021/09/06 03:49:06;;;;;;;7.70;5.43;;;;;;;14.84;73.79;100387.41;1088797;54;20058;-79
2021/09/06 03:50:12;;;;;;;8.48;5.40;;;;;;;14.70;74.52;100384.34;1091278;38;20483;-78
2021/09/06 03:51:13;;;;;;;7.30;5.35;;;;;;;14.69;74.44;100382.66;1088867;54;20647;-80
2021/09/06 03:52:17;;;;;;;9.05;5.55;;;;;;;14.65;74.57;100389.31;1088870;46;20041;-80
2021/09/06 03:53:19;;;;;;;9.00;5.60;;;;;;;14.61;74.70;100388.81;1088406;54;20061;-80
2021/09/06 03:54:23;;;;;;;8.55;5.72;;;;;;;14.57;74.97;100382.09;1088681;54;20045;-79
2021/09/06 03:55:24;;;;;;;8.23;5.20;;;;;;;14.57;74.97;100386.63;1088387;54;20057;-78
2021/09/06 03:56:29;;;;;;;7.47;5.28;;;;;;;14.50;75.21;100387.28;1088261;54;20057;-79
2021/09/06 03:57:30;;;;;;;8.95;5.35;;;;;;;14.53;75.16;100390.66;1088207;54;20038;-80
2021/09/06 03:58:34;;;;;;;10.68;6.20;;;;;;;14.42;75.44;100392.63;1088533;54;20041;-78
2021/09/06 03:59:36;;;;;;;7.53;5.57;;;;;;;14.44;75.41;100387.06;1088365;54;20050;-79
2021/09/06 04:00:40;;;;;;;8.13;5.82;;;;;;;14.44;75.66;100387.94;1088386;54;20034;-79
2021/09/06 04:01:41;;;;;;;7.68;5.20;;;;;;;14.39;75.63;100395.63;1088272;39;20519;-79
2021/09/06 04:02:48;;;;;;;8.60;6.13;;;;;;;14.38;75.78;100393.94;1088306;54;20030;-78
2021/09/06 04:03:52;;;;;;;7.60;5.70;;;;;;;14.39;75.97;100392.09;1088471;54;20027;-79
2021/09/06 04:04:57;;;;;;;7.60;5.53;;;;;;;14.38;76.10;100391.25;1088326;54;20038;-80
2021/09/06 04:05:59;;;;;;;10.13;5.82;;;;;;;14.43;75.89;100388.94;1088634;54;20044;-79
2021/09/06 04:07:04;;;;;;;9.35;5.38;;;;;;;14.48;75.78;100386.59;1088645;54;20971;-80
2021/09/06 04:08:06;;;;;;;8.82;5.95;;;;;;;14.42;75.89;100394.44;1088473;54;20041;-81
2021/09/06 04:09:10;;;;;;;7.95;5.43;;;;;;;14.60;75.55;100392.50;1088402;54;20038;-81
2021/09/06 04:10:12;;;;;;;8.27;5.28;;;;;;;14.54;75.44;100387.78;1087374;54;20038;-79
2021/09/06 04:11:16;;;;;;;7.90;5.97;;;;;;;14.44;76.04;100396.00;1086934;54;20050;-79
2021/09/06 04:12:18;;;;;;;7.43;5.68;;;;;;;14.46;76.10;100395.84;1088869;39;20250;-79
2021/09/06 04:13:22;;;;;;;7.47;5.72;;;;;;;14.38;76.41;100388.56;1087125;54;20034;-81
2021/09/06 04:14:26;;;;;;;8.75;5.63;;;;;;;14.40;76.23;100386.56;1087092;54;20050;-78
2021/09/06 04:15:30;;;;;;;7.97;5.97;;;;;;;14.38;76.50;100388.56;1087062;54;20054;-78
2021/09/06 04:16:32;;;;;;;9.57;6.38;;;;;;;14.38;76.49;100388.56;1087045;54;20038;-81
2021/09/06 04:17:36;;;;;;;8.48;5.72;;;;;;;14.44;76.37;100387.94;1089839;39;20280;-81
2021/09/06 04:18:40;;;;;;;8.55;5.85;;;;;;;14.46;76.69;100390.44;1087292;54;20035;-81
2021/09/06 04:19:44;;;;;;;7.50;5.50;;;;;;;14.41;76.63;100392.75;1087447;54;20057;-80
2021/09/06 04:20:46;;;;;;;9.13;6.30;;;;;;;14.35;77.01;100388.91;1087418;54;20014;-79
2021/09/06 04:21:50;;;;;;;8.50;5.68;;;;;;;14.37;76.92;100397.63;1087003;54;20030;-79
2021/09/06 04:22:54;;;;;;;8.18;6.38;;;;;;;14.38;76.86;100393.94;1087559;54;20041;-81
2021/09/06 04:23:55;;;;;;;7.88;5.68;;;;;;;14.38;77.15;100404.69;1087717;54;20034;-80
2021/09/06 04:25:02;;;;;;;9.23;6.28;;;;;;;14.39;76.98;100401.00;1088133;46;20041;-79
2021/09/06 04:26:03;;;;;;;8.43;6.03;;;;;;;14.34;77.16;100397.97;1087233;54;20018;-80
2021/09/06 04:27:07;;;;;;;8.95;6.10;;;;;;;14.34;77.32;100404.19;1087048;54;20031;-80
2021/09/06 04:28:09;;;;;;;8.30;6.28;;;;;;;14.29;77.09;100401.13;1086705;54;20037;-80
2021/09/06 04:29:15;;;;;;;8.90;6.18;;;;;;;14.25;77.32;100402.44;1087383;54;20026;-79
2021/09/06 04:30:16;;;;;;;12.85;6.10;;;;;;;14.19;77.43;100403.94;1087012;54;20057;-79
2021/09/06 04:31:21;;;;;;;9.23;6.07;;;;;;;14.24;77.38;100408.84;1087015;39;20445;-80